createdAt,value
2023-04-12T00:01:08.119Z,100120.63
2023-04-12T00:03:35.398Z,100103.31
2023-04-12T00:06:03.539Z,100088.97
2023-04-12T00:08:34.021Z,100074.72
2023-04-12T00:11:02.292Z,100082.88
2023-04-12T00:13:30.111Z,100073.50
2023-04-12T00:15:56.928Z,100060.88
2023-04-12T00:18:27.610Z,100048.56
2023-04-12T00:20:55.655Z,100051.25
2023-04-12T00:23:22.358Z,100028.16
2023-04-12T00:25:49.241Z,100025.56
2023-04-12T00:28:16.191Z,100017.50
2023-04-12T00:30:44.090Z,100023.53
2023-04-12T00:33:11.153Z,100008.53
2023-04-12T00:35:38.087Z,100010.59
2023-04-12T00:38:06.400Z,99992.63
2023-04-12T00:40:33.354Z,99986.19
2023-04-12T00:43:00.772Z,99979.41
2023-04-12T00:45:27.913Z,99974.69
2023-04-12T00:47:56.570Z,99971.34
2023-04-12T00:50:24.317Z,99954.25
2023-04-12T00:52:52.113Z,99950.94
2023-04-12T00:55:19.018Z,99954.41
2023-04-12T00:57:46.866Z,99944.03
2023-04-12T01:00:14.126Z,99933.91
2023-04-12T01:02:42.900Z,99925.56
2023-04-12T01:05:14.816Z,99928.28
2023-04-12T01:07:45.163Z,99919.03
2023-04-12T01:10:41.191Z,99919.00
2023-04-12T01:13:08.050Z,99915.09
2023-04-12T01:15:37.925Z,99904.56
2023-04-12T01:18:09.906Z,99888.50
2023-04-12T01:20:53.843Z,99880.25
2023-04-12T01:23:33.216Z,99874.84
2023-04-12T01:26:28.297Z,99857.56
2023-04-12T01:28:56.565Z,99848.56
2023-04-12T01:31:26.430Z,99840.78
2023-04-12T01:33:55.052Z,99836.47
2023-04-12T01:36:23.177Z,99826.31
2023-04-12T01:38:50.569Z,99816.13
2023-04-12T01:41:17.866Z,99802.94
2023-04-12T01:43:46.118Z,99794.59
2023-04-12T01:46:17.015Z,99798.34
2023-04-12T01:48:50.680Z,99786.03
2023-04-12T01:51:35.637Z,99780.97
2023-04-12T01:54:11.261Z,99763.50
2023-04-12T01:56:40.892Z,99764.13
2023-04-12T01:59:08.173Z,99758.16
2023-04-12T02:01:35.184Z,99740.91
2023-04-12T02:04:04.786Z,99744.75
2023-04-12T02:06:31.931Z,99746.63
2023-04-12T02:09:00.709Z,99740.00
2023-04-12T02:11:27.793Z,99725.47
2023-04-12T02:13:54.908Z,99720.97
2023-04-12T02:16:23.244Z,99718.44
2023-04-12T02:18:51.137Z,99703.59
2023-04-12T02:21:18.771Z,99687.34
2023-04-12T02:23:45.463Z,99682.28
2023-04-12T02:26:12.216Z,99682.69
2023-04-12T02:28:39.511Z,99674.47
2023-04-12T02:31:10.131Z,99677.53
2023-04-12T02:33:37.315Z,99671.63
2023-04-12T02:36:12.707Z,99662.00
2023-04-12T02:38:40.276Z,99663.50
2023-04-12T02:41:07.974Z,99650.03
2023-04-12T02:43:35.812Z,99654.47
2023-04-12T02:46:08.095Z,99646.50
2023-04-12T02:48:47.450Z,99641.16
2023-04-12T02:51:14.902Z,99646.00
2023-04-12T02:53:43.601Z,99631.91
2023-04-12T02:56:19.288Z,99632.28
2023-04-12T02:58:50.414Z,99609.53
2023-04-12T03:01:30.181Z,99625.19
2023-04-12T03:04:15.316Z,99612.41
2023-04-12T03:06:53.991Z,99608.28
2023-04-12T03:09:33.765Z,99590.00
2023-04-12T03:12:02.532Z,99594.50
2023-04-12T03:14:33.385Z,99594.50
2023-04-12T03:17:00.237Z,99584.31
2023-04-12T03:19:28.942Z,99580.69
2023-04-12T03:21:55.825Z,99575.47
2023-04-12T03:24:23.190Z,99572.38
2023-04-12T03:26:52.376Z,99571.28
2023-04-12T03:29:23.354Z,99574.94
2023-04-12T03:31:52.582Z,99577.75
2023-04-12T03:34:19.855Z,99560.97
2023-04-12T03:36:51.891Z,99561.38
2023-04-12T03:39:24.860Z,99564.41
2023-04-12T03:41:53.250Z,99561.19
2023-04-12T03:44:26.433Z,99569.69
2023-04-12T03:46:55.821Z,99547.66
2023-04-12T03:49:23.941Z,99545.63
2023-04-12T03:51:52.818Z,99531.94
2023-04-12T03:54:19.910Z,99531.13
2023-04-12T03:56:56.824Z,99529.03
2023-04-12T03:59:44.584Z,99514.25
2023-04-12T04:02:12.316Z,99514.88
2023-04-12T04:04:45.462Z,99511.78
2023-04-12T04:07:16.263Z,99505.69
2023-04-12T04:09:45.458Z,99505.09
2023-04-12T04:12:12.432Z,99500.53
2023-04-12T04:14:44.351Z,99500.69
2023-04-12T04:17:16.754Z,99496.50
2023-04-12T04:19:43.815Z,99492.22
2023-04-12T04:22:12.443Z,99495.72
2023-04-12T04:24:40.236Z,99499.88
2023-04-12T04:27:07.968Z,99489.28
2023-04-12T04:29:36.871Z,99484.19
2023-04-12T04:32:03.734Z,99488.13
2023-04-12T04:34:31.881Z,99478.69
2023-04-12T04:37:08.798Z,99481.41
2023-04-12T04:39:36.711Z,99485.84
2023-04-12T04:42:06.690Z,99479.69
2023-04-12T04:44:39.127Z,99476.31
2023-04-12T04:47:10.941Z,99477.47
2023-04-12T04:49:38.007Z,99482.94
2023-04-12T04:52:20.443Z,99472.81
2023-04-12T04:54:48.704Z,99478.31
2023-04-12T04:57:15.849Z,99473.00
2023-04-12T04:59:43.134Z,99465.53
2023-04-12T05:02:16.917Z,99465.09
2023-04-12T05:04:44.887Z,99461.09
2023-04-12T05:07:14.649Z,99463.06
2023-04-12T05:09:44.842Z,99456.91
2023-04-12T05:12:11.868Z,99459.38
2023-04-12T05:14:47.337Z,99451.50
2023-04-12T05:17:18.612Z,99457.31
2023-04-12T05:19:45.368Z,99464.00
2023-04-12T05:22:13.869Z,99466.03
2023-04-12T05:24:41.132Z,99461.50
2023-04-12T05:27:09.689Z,99465.97
2023-04-12T05:29:36.542Z,99460.84
2023-04-12T05:32:06.017Z,99453.25
2023-04-12T05:34:32.862Z,99448.50
2023-04-12T05:37:00.111Z,99455.63
2023-04-12T05:39:31.873Z,99463.13
2023-04-12T05:41:58.617Z,99467.03
2023-04-12T05:44:26.456Z,99466.78
2023-04-12T05:46:53.302Z,99470.19
2023-04-12T05:49:20.317Z,99476.84
2023-04-12T05:51:47.216Z,99475.25
2023-04-12T05:54:22.080Z,99468.66
2023-04-12T05:56:54.365Z,99467.22
2023-04-12T05:59:22.525Z,99470.31
2023-04-12T06:01:49.220Z,99458.13
2023-04-12T06:04:18.231Z,99476.88
2023-04-12T06:06:45.526Z,99488.69
2023-04-12T06:09:12.574Z,99479.34
2023-04-12T06:11:39.451Z,99483.41
2023-04-12T06:14:07.078Z,99472.81
2023-04-12T06:16:34.797Z,99480.91
2023-04-12T06:19:01.772Z,99477.16
2023-04-12T06:21:28.540Z,99478.31
2023-04-12T06:23:55.275Z,99476.63
2023-04-12T06:26:22.161Z,99472.94
2023-04-12T06:28:49.140Z,99476.88
2023-04-12T06:31:17.253Z,99473.97
2023-04-12T06:33:44.704Z,99475.41
2023-04-12T06:36:12.748Z,99474.03
2023-04-12T06:38:39.540Z,99474.00
2023-04-12T06:41:06.959Z,99466.50
2023-04-12T06:43:33.831Z,99476.03
2023-04-12T06:46:03.044Z,99488.81
2023-04-12T06:48:30.064Z,99483.69
2023-04-12T06:50:56.977Z,99486.75
2023-04-12T06:53:23.738Z,99490.19
2023-04-12T06:56:19.432Z,99490.34
2023-04-12T06:58:46.408Z,99484.47
2023-04-12T07:01:16.092Z,99483.00
2023-04-12T07:03:43.149Z,99483.16
2023-04-12T07:06:21.811Z,99487.31
2023-04-12T07:08:51.717Z,99483.53
2023-04-12T07:11:21.743Z,99486.06
2023-04-12T07:13:49.532Z,99481.63
2023-04-12T07:16:17.279Z,99479.72
2023-04-12T07:18:44.502Z,99473.78
2023-04-12T07:21:14.600Z,99486.78
2023-04-12T07:23:41.568Z,99486.78
2023-04-12T07:26:08.348Z,99478.13
2023-04-12T07:28:36.446Z,99486.00
2023-04-12T07:31:07.161Z,99490.34
2023-04-12T07:33:36.170Z,99491.50
2023-04-12T07:36:04.227Z,99499.03
2023-04-12T07:38:31.489Z,99484.63
2023-04-12T07:40:58.326Z,99490.19
2023-04-12T07:43:25.566Z,99491.91
2023-04-12T07:45:55.222Z,99499.69
2023-04-12T07:48:22.177Z,99495.84
2023-04-12T07:50:48.972Z,99501.88
2023-04-12T07:53:22.908Z,99496.63
2023-04-12T07:55:51.138Z,99491.56
2023-04-12T07:58:19.051Z,99486.44
2023-04-12T08:00:46.723Z,99478.59
2023-04-12T08:03:14.830Z,99476.75
2023-04-12T08:05:42.217Z,99480.50
2023-04-12T08:08:12.099Z,99474.50
2023-04-12T08:10:39.589Z,99491.97
2023-04-12T08:13:06.858Z,99488.22
2023-04-12T08:15:34.065Z,99481.25
2023-04-12T08:18:02.116Z,99478.22
2023-04-12T08:20:32.911Z,99479.38
2023-04-12T08:22:59.685Z,99478.50
2023-04-12T08:25:27.135Z,99476.66
2023-04-12T08:27:54.000Z,99478.78
2023-04-12T08:30:26.817Z,99468.88
2023-04-12T08:32:54.119Z,99480.78
2023-04-12T08:35:22.941Z,99482.25
2023-04-12T08:37:49.909Z,99472.94
2023-04-12T08:40:25.801Z,99479.91
2023-04-12T08:42:53.192Z,99467.56
2023-04-12T08:45:23.787Z,99456.50
2023-04-12T08:47:51.266Z,99457.91
2023-04-12T08:50:21.363Z,99466.59
2023-04-12T08:52:49.649Z,99470.53
2023-04-12T08:55:16.736Z,99483.66
2023-04-12T08:57:43.812Z,99476.88
2023-04-12T09:00:13.101Z,99475.91
2023-04-12T09:02:43.408Z,99471.72
2023-04-12T09:05:10.420Z,99481.91
2023-04-12T09:07:37.219Z,99484.38
2023-04-12T09:10:04.979Z,99481.06
2023-04-12T09:12:32.538Z,99486.47
2023-04-12T09:15:09.301Z,99487.41
2023-04-12T09:17:37.173Z,99480.97
2023-04-12T09:20:07.399Z,99477.66
2023-04-12T09:22:38.867Z,99478.59
2023-04-12T09:25:06.428Z,99487.16
2023-04-12T09:27:47.313Z,99477.78
2023-04-12T09:30:15.123Z,99478.84
2023-04-12T09:32:42.158Z,99470.44
2023-04-12T09:35:16.052Z,99470.59
2023-04-12T09:37:43.308Z,99486.22
2023-04-12T09:40:10.752Z,99477.66
2023-04-12T09:42:52.443Z,99493.13
2023-04-12T09:45:24.380Z,99487.38
2023-04-12T09:47:51.777Z,99494.31
2023-04-12T09:50:28.743Z,99501.25
2023-04-12T09:52:57.015Z,99503.00
2023-04-12T09:55:27.008Z,99500.00
2023-04-12T09:57:55.325Z,99495.09
2023-04-12T10:00:27.111Z,99499.56
2023-04-12T10:02:56.423Z,99500.63
2023-04-12T10:05:27.221Z,99495.63
2023-04-12T10:07:58.286Z,99484.50
2023-04-12T10:10:28.356Z,99495.97
2023-04-12T10:12:55.977Z,99494.59
2023-04-12T10:15:23.056Z,99486.38
2023-04-12T10:17:57.692Z,99487.22
2023-04-12T10:20:28.137Z,99480.88
2023-04-12T10:22:56.422Z,99486.06
2023-04-12T10:25:27.175Z,99481.59
2023-04-12T10:27:54.036Z,99488.91
2023-04-12T10:30:32.074Z,99481.72
2023-04-12T10:33:05.499Z,99483.59
2023-04-12T10:35:53.028Z,99477.09
2023-04-12T10:38:20.371Z,99479.59
2023-04-12T10:41:09.264Z,99481.56
2023-04-12T10:43:36.108Z,99483.38
2023-04-12T10:46:06.842Z,99471.44
2023-04-12T10:48:33.612Z,99481.66
2023-04-12T10:51:18.212Z,99478.03
2023-04-12T10:53:46.929Z,99469.34
2023-04-12T10:56:34.237Z,99480.69
2023-04-12T10:59:02.956Z,99479.41
2023-04-12T11:01:38.447Z,99492.44
2023-04-12T11:04:10.755Z,99498.78
2023-04-12T11:06:42.631Z,99501.78
2023-04-12T11:09:33.944Z,99501.69
2023-04-12T11:12:03.720Z,99498.41
2023-04-12T11:14:38.784Z,99495.63
2023-04-12T11:17:05.892Z,99493.91
2023-04-12T11:19:33.480Z,99479.78
2023-04-12T11:22:01.351Z,99477.91
2023-04-12T11:24:28.403Z,99467.75
2023-04-12T11:26:56.353Z,99466.03
2023-04-12T11:29:27.461Z,99475.13
2023-04-12T11:31:56.080Z,99464.69
2023-04-12T11:34:22.952Z,99470.91
2023-04-12T11:36:53.265Z,99461.09
2023-04-12T11:39:21.307Z,99465.00
2023-04-12T11:41:49.493Z,99458.41
2023-04-12T11:44:19.093Z,99472.09
2023-04-12T11:46:46.490Z,99468.22
2023-04-12T11:49:17.705Z,99465.88
2023-04-12T11:51:48.208Z,99477.78
2023-04-12T11:54:17.150Z,99469.22
2023-04-12T11:56:43.963Z,99462.94
2023-04-12T11:59:10.717Z,99464.47
2023-04-12T12:01:38.020Z,99469.44
2023-04-12T12:04:07.419Z,99465.13
2023-04-12T12:06:34.750Z,99465.59
2023-04-12T12:09:03.373Z,99485.13
2023-04-12T12:11:31.094Z,99506.13
2023-04-12T12:14:00.494Z,99527.59
2023-04-12T12:16:29.689Z,99549.78
2023-04-12T12:18:57.231Z,99553.88
2023-04-12T12:21:24.034Z,99562.34
2023-04-12T12:23:50.960Z,99564.88
2023-04-12T12:26:24.916Z,99561.47
2023-04-12T12:28:54.077Z,99543.31
2023-04-12T12:31:23.535Z,99528.59
2023-04-12T12:33:54.575Z,99517.72
2023-04-12T12:36:28.570Z,99499.69
2023-04-12T12:38:55.567Z,99498.22
2023-04-12T12:41:23.898Z,99504.47
2023-04-12T12:43:52.525Z,99513.84
2023-04-12T12:46:20.547Z,99517.81
2023-04-12T12:48:48.341Z,99526.22
2023-04-12T12:51:20.222Z,99525.09
2023-04-12T12:53:47.377Z,99519.28
2023-04-12T12:56:14.860Z,99528.44
2023-04-12T12:58:42.319Z,99529.81
2023-04-12T13:01:09.234Z,99528.00
2023-04-12T13:03:36.530Z,99520.06
2023-04-12T13:06:03.434Z,99521.75
2023-04-12T13:08:34.482Z,99506.88
2023-04-12T13:11:01.249Z,99507.13
2023-04-12T13:13:28.703Z,99497.00
2023-04-12T13:15:56.137Z,99496.25
2023-04-12T13:18:22.981Z,99485.94
2023-04-12T13:20:49.942Z,99493.59
2023-04-12T13:23:17.328Z,99479.69
2023-04-12T13:25:43.983Z,99478.81
2023-04-12T13:28:12.425Z,99483.38
2023-04-12T13:30:39.340Z,99471.00
2023-04-12T13:33:06.251Z,99485.47
2023-04-12T13:35:33.080Z,99492.41
2023-04-12T13:38:00.369Z,99485.56
2023-04-12T13:40:27.694Z,99482.59
2023-04-12T13:42:54.788Z,99490.84
2023-04-12T13:45:22.543Z,99487.41
2023-04-12T13:47:49.504Z,99490.22
2023-04-12T13:50:16.549Z,99482.16
2023-04-12T13:52:43.367Z,99488.13
2023-04-12T13:55:10.363Z,99493.38
2023-04-12T13:57:37.233Z,99485.75
2023-04-12T14:00:04.719Z,99492.34
2023-04-12T14:02:32.023Z,99495.75
2023-04-12T14:04:59.966Z,99496.72
2023-04-12T14:07:28.738Z,99512.00
2023-04-12T14:09:56.206Z,99516.03
2023-04-12T14:12:23.122Z,99521.94
2023-04-12T14:14:49.956Z,99532.44
2023-04-12T14:17:17.555Z,99549.00
2023-04-12T14:19:44.410Z,99549.78
2023-04-12T14:22:11.286Z,99540.31
2023-04-12T14:24:38.290Z,99530.78
2023-04-12T14:27:05.219Z,99527.78
2023-04-12T14:29:33.270Z,99508.88
2023-04-12T14:32:00.315Z,99508.16
2023-04-12T14:34:27.002Z,99507.78
2023-04-12T14:36:54.069Z,99508.03
2023-04-12T14:39:20.917Z,99504.00
2023-04-12T14:41:48.380Z,99496.97
2023-04-12T14:44:17.005Z,99483.19
2023-04-12T14:46:45.298Z,99492.03
2023-04-12T14:49:12.185Z,99493.19
2023-04-12T14:51:38.920Z,99494.72
2023-04-12T14:54:05.827Z,99497.09
2023-04-12T14:56:36.159Z,99499.91
2023-04-12T14:59:07.169Z,99503.75
2023-04-12T15:01:35.099Z,99488.44
2023-04-12T15:04:04.319Z,99502.28
2023-04-12T15:06:33.864Z,99490.97
2023-04-12T15:09:03.065Z,99489.66
2023-04-12T15:11:35.826Z,99478.03
2023-04-12T15:14:04.337Z,99481.41
2023-04-12T15:16:31.204Z,99477.16
2023-04-12T15:19:00.901Z,99468.53
2023-04-12T15:21:30.369Z,99477.81
2023-04-12T15:23:57.756Z,99478.53
2023-04-12T15:26:25.024Z,99481.06
2023-04-12T15:28:51.916Z,99476.91
2023-04-12T15:31:18.863Z,99484.03
2023-04-12T15:33:47.148Z,99477.13
2023-04-12T15:36:18.748Z,99480.56
2023-04-12T15:38:45.944Z,99479.50
2023-04-12T15:41:13.038Z,99474.56
2023-04-12T15:43:42.186Z,99481.81
2023-04-12T15:46:09.338Z,99472.13
2023-04-12T15:48:38.984Z,99468.91
2023-04-12T15:51:06.361Z,99463.41
2023-04-12T15:53:33.385Z,99465.19
2023-04-12T15:56:01.154Z,99470.94
2023-04-12T15:58:28.176Z,99467.31
2023-04-12T16:00:59.063Z,99470.59
2023-04-12T16:03:27.108Z,99472.47
2023-04-12T16:05:58.836Z,99476.25
2023-04-12T16:08:27.634Z,99462.31
2023-04-12T16:10:54.669Z,99478.66
2023-04-12T16:13:21.593Z,99479.03
2023-04-12T16:15:48.656Z,99475.19
2023-04-12T16:18:17.429Z,99466.28
2023-04-12T16:20:45.401Z,99466.91
2023-04-12T16:23:13.191Z,99465.25
2023-04-12T16:25:40.394Z,99468.94
2023-04-12T16:28:08.191Z,99457.09
2023-04-12T16:30:35.370Z,99463.66
2023-04-12T16:33:02.843Z,99456.31
2023-04-12T16:35:30.704Z,99462.16
2023-04-12T16:37:57.724Z,99469.25
2023-04-12T16:40:24.736Z,99465.66
2023-04-12T16:42:51.709Z,99472.56
2023-04-12T16:45:18.844Z,99468.41
2023-04-12T16:47:47.045Z,99468.63
2023-04-12T16:50:13.972Z,99463.72
2023-04-12T16:52:41.671Z,99463.66
2023-04-12T16:55:12.938Z,99451.25
2023-04-12T16:57:41.174Z,99462.94
2023-04-12T17:00:29.744Z,99470.03
2023-04-12T17:02:56.829Z,99461.28
2023-04-12T17:05:25.427Z,99479.28
2023-04-12T17:07:56.559Z,99474.31
2023-04-12T17:10:28.921Z,99482.09
2023-04-12T17:13:01.933Z,99483.69
2023-04-12T17:15:32.327Z,99481.50
2023-04-12T17:18:12.284Z,99496.81
2023-04-12T17:20:44.009Z,99483.84
2023-04-12T17:23:13.808Z,99490.41
2023-04-12T17:25:41.881Z,99497.13
2023-04-12T17:28:09.548Z,99453.41
2023-04-12T17:30:47.256Z,99456.09
2023-04-12T17:33:17.992Z,99481.84
2023-04-12T17:35:46.463Z,99490.94
2023-04-12T17:38:15.699Z,99518.19
2023-04-12T17:40:45.539Z,99523.78
2023-04-12T17:43:13.509Z,99541.63
2023-04-12T17:45:40.811Z,99525.22
2023-04-12T17:48:10.837Z,99459.50
2023-04-12T17:50:37.914Z,99445.09
2023-04-12T17:53:04.812Z,99450.84
2023-04-12T17:55:31.908Z,99433.06
2023-04-12T17:57:59.129Z,99434.53
2023-04-12T18:00:26.659Z,99433.84
2023-04-12T18:02:54.209Z,99419.22
2023-04-12T18:05:21.614Z,99430.59
2023-04-12T18:07:48.605Z,99421.50
2023-04-12T18:10:20.959Z,99419.34
2023-04-12T18:12:48.285Z,99419.63
2023-04-12T18:15:15.164Z,99417.56
2023-04-12T18:17:42.915Z,99418.69
2023-04-12T18:20:10.867Z,99424.22
2023-04-12T18:22:38.491Z,99421.97
2023-04-12T18:25:06.795Z,99424.63
2023-04-12T18:27:35.652Z,99428.97
2023-04-12T18:30:03.566Z,99426.00
2023-04-12T18:32:30.521Z,99422.97
2023-04-12T18:34:57.365Z,99417.06
2023-04-12T18:37:24.319Z,99429.78
2023-04-12T18:39:53.302Z,99430.88
2023-04-12T18:42:20.377Z,99429.56
2023-04-12T18:44:47.389Z,99428.84
2023-04-12T18:47:14.287Z,99430.06
2023-04-12T18:49:41.192Z,99438.44
2023-04-12T18:52:08.524Z,99430.97
2023-04-12T18:54:35.429Z,99443.97
2023-04-12T18:57:03.530Z,99430.53
2023-04-12T18:59:31.175Z,99426.25
2023-04-12T19:01:58.397Z,99426.66
2023-04-12T19:04:25.311Z,99429.91
2023-04-12T19:06:52.661Z,99423.88
2023-04-12T19:09:19.833Z,99419.88
2023-04-12T19:11:47.136Z,99420.81
2023-04-12T19:14:14.052Z,99429.97
2023-04-12T19:16:41.124Z,99428.00
2023-04-12T19:19:08.418Z,99435.16
2023-04-12T19:21:35.504Z,99417.16
2023-04-12T19:24:02.404Z,99419.16
2023-04-12T19:26:30.320Z,99415.41
2023-04-12T19:28:58.917Z,99413.22
2023-04-12T19:31:26.147Z,99414.78
2023-04-12T19:33:55.179Z,99403.97
2023-04-12T19:36:24.780Z,99413.22
2023-04-12T19:38:52.340Z,99406.28
2023-04-12T19:41:20.550Z,99407.78
2023-04-12T19:43:47.849Z,99393.50
2023-04-12T19:46:15.433Z,99400.63
2023-04-12T19:48:42.832Z,99388.34
2023-04-12T19:51:09.850Z,99391.41
2023-04-12T19:53:36.867Z,99389.56
2023-04-12T19:56:06.644Z,99392.13
2023-04-12T19:58:33.566Z,99386.13
2023-04-12T20:01:07.481Z,99386.25
2023-04-12T20:03:34.777Z,99377.97
2023-04-12T20:06:04.609Z,99376.22
2023-04-12T20:08:39.285Z,99379.16
2023-04-12T20:11:06.393Z,99363.75
2023-04-12T20:13:34.304Z,99359.00
2023-04-12T20:16:01.327Z,99355.69
2023-04-12T20:18:29.697Z,99341.13
2023-04-12T20:20:59.254Z,99338.94
2023-04-12T20:23:26.673Z,99333.25
2023-04-12T20:25:53.490Z,99334.91
2023-04-12T20:28:21.252Z,99339.91
2023-04-12T20:30:48.577Z,99339.31
2023-04-12T20:33:15.922Z,99327.72
2023-04-12T20:35:43.034Z,99331.38
2023-04-12T20:38:10.240Z,99325.00
2023-04-12T20:40:37.190Z,99309.34
2023-04-12T20:43:04.698Z,99321.00
2023-04-12T20:45:31.495Z,99319.50
2023-04-12T20:47:58.374Z,99308.41
2023-04-12T20:50:25.718Z,99306.84
2023-04-12T20:52:52.549Z,99302.22
2023-04-12T20:55:19.603Z,99301.09
2023-04-12T20:57:46.570Z,99299.44
2023-04-12T21:00:18.336Z,99301.78
2023-04-12T21:02:46.203Z,99281.19
2023-04-12T21:05:15.044Z,99286.91
2023-04-12T21:07:44.076Z,99275.09
2023-04-12T21:10:13.961Z,99273.22
2023-04-12T21:12:42.920Z,99275.41
2023-04-12T21:15:11.768Z,99273.38
2023-04-12T21:17:39.262Z,99256.75
2023-04-12T21:20:25.339Z,99258.22
2023-04-12T21:22:52.503Z,99261.56
2023-04-12T21:25:19.983Z,99255.03
2023-04-12T21:27:47.234Z,99249.31
2023-04-12T21:30:14.728Z,99255.31
2023-04-12T21:32:43.969Z,99252.09
2023-04-12T21:35:11.618Z,99246.06
2023-04-12T21:37:39.614Z,99246.06
2023-04-12T21:40:17.233Z,99239.53
2023-04-12T21:42:45.234Z,99235.88
2023-04-12T21:45:13.809Z,99250.00
2023-04-12T21:47:41.722Z,99255.84
2023-04-12T21:50:09.948Z,99253.78
2023-04-12T21:52:37.420Z,99258.41
2023-04-12T21:55:06.127Z,99239.28
2023-04-12T21:57:33.902Z,99241.44
2023-04-12T22:00:05.501Z,99232.38
2023-04-12T22:02:39.019Z,99216.31
2023-04-12T22:05:07.032Z,99226.28
2023-04-12T22:07:33.813Z,99223.81
2023-04-12T22:10:01.987Z,99232.81
2023-04-12T22:12:29.445Z,99215.94
2023-04-12T22:14:57.746Z,99233.63
2023-04-12T22:17:25.523Z,99224.25
2023-04-12T22:19:56.654Z,99228.59
2023-04-12T22:22:25.025Z,99232.94
2023-04-12T22:24:53.058Z,99235.66
2023-04-12T22:27:19.931Z,99224.00
2023-04-12T22:29:49.885Z,99225.63
2023-04-12T22:32:17.121Z,99224.56
2023-04-12T22:34:43.855Z,99217.53
2023-04-12T22:37:19.683Z,99220.69
2023-04-12T22:39:52.839Z,99214.09
2023-04-12T22:42:29.297Z,99207.34
2023-04-12T22:45:00.530Z,99202.72
2023-04-12T22:47:28.127Z,99209.16
2023-04-12T22:50:01.353Z,99208.22
2023-04-12T22:52:30.889Z,99205.09
2023-04-12T22:55:00.671Z,99216.88
2023-04-12T22:57:30.710Z,99222.75
2023-04-12T23:00:01.966Z,99223.09
2023-04-12T23:02:28.903Z,99208.03
2023-04-12T23:04:57.238Z,99204.75
2023-04-12T23:07:30.197Z,99200.03
2023-04-12T23:09:58.152Z,99201.09
2023-04-12T23:12:25.397Z,99198.09
2023-04-12T23:14:55.722Z,99199.16
2023-04-12T23:17:22.805Z,99190.38
2023-04-12T23:19:53.178Z,99185.63
2023-04-12T23:22:48.361Z,99206.28
2023-04-12T23:25:21.860Z,99189.19
2023-04-12T23:27:51.192Z,99184.53
2023-04-12T23:30:18.952Z,99184.88
2023-04-12T23:32:46.532Z,99188.22
2023-04-12T23:35:14.886Z,99201.53
2023-04-12T23:37:43.334Z,99185.81
2023-04-12T23:40:16.116Z,99181.94
2023-04-12T23:42:43.698Z,99187.13
2023-04-12T23:45:14.064Z,99193.28
2023-04-12T23:47:41.449Z,99181.81
2023-04-12T23:50:08.565Z,99190.91
2023-04-12T23:52:35.955Z,99192.25
2023-04-12T23:55:03.177Z,99188.03
2023-04-12T23:57:29.973Z,99182.09
2023-04-12T23:59:56.776Z,99188.53
